Time;durP1;ratioP1;P1;durP2;ratioP2;P2;SDS_P1;SDS_P2;PMS_P1;PMS_P2;Temp;Humidity;BMP_temperature;BMP_pressure;BME280_temperature;BME280_humidity;BME280_pressure;Samples;Min_cycle;Max_cycle;Signal;HPM_P1;HPM_P2
2022/09/04 00:00:11;;;;;;;7.72;4.90;;;21.70;62.40;;;;;;4989228;28;20019;-70
2022/09/04 00:02:58;;;;;;;9.73;5.40;;;21.60;62.80;;;;;;4980483;28;20031;-70
2022/09/04 00:05:34;;;;;;;7.93;4.53;;;21.60;62.90;;;;;;4980040;28;20022;-69
2022/09/04 00:08:20;;;;;;;8.05;5.72;;;21.50;63.10;;;;;;4979195;28;20031;-70
2022/09/04 00:10:52;;;;;;;8.30;5.25;;;21.50;63.60;;;;;;4987648;28;20121;-70
2022/09/04 00:13:22;;;;;;;10.02;5.80;;;21.50;62.90;;;;;;4993521;28;20027;-69
2022/09/04 00:16:00;;;;;;;6.97;3.75;;;21.40;63.80;;;;;;4986404;28;20113;-69
2022/09/04 00:18:44;;;;;;;8.52;5.63;;;21.40;63.20;;;;;;4989508;28;20026;-69
2022/09/04 00:21:20;;;;;;;8.52;6.20;;;21.30;64.20;;;;;;4989233;28;20033;-69
2022/09/04 00:24:07;;;;;;;9.50;5.57;;;21.30;64.90;;;;;;4977017;28;20023;-69
2022/09/04 00:26:44;;;;;;;8.50;6.43;;;21.30;64.90;;;;;;4981949;28;20023;-69
2022/09/04 00:29:42;;;;;;;8.65;6.18;;;21.30;65.40;;;;;;4992916;28;20046;-70
2022/09/04 00:32:17;;;;;;;7.38;5.05;;;21.20;65.80;;;;;;4980292;28;20102;-70
2022/09/04 00:35:19;;;;;;;8.75;5.70;;;21.20;65.70;;;;;;4990434;28;20034;-70
2022/09/04 00:38:05;;;;;;;8.68;5.63;;;21.10;65.90;;;;;;4981911;28;20081;-69
2022/09/04 00:40:37;;;;;;;8.55;6.13;;;21.10;66.40;;;;;;4991263;28;20053;-69
2022/09/04 00:43:08;;;;;;;9.48;6.40;;;21.10;67.00;;;;;;4993199;28;20064;-69
2022/09/04 00:45:40;;;;;;;9.00;6.85;;;21.10;67.50;;;;;;4975867;28;20392;-70
2022/09/04 00:48:25;;;;;;;9.57;7.15;;;21.10;67.60;;;;;;4988805;28;20895;-70
2022/09/04 00:51:15;;;;;;;12.23;6.15;;;21.00;67.80;;;;;;4973808;28;20093;-69
2022/09/04 00:54:03;;;;;;;9.93;6.53;;;21.00;68.00;;;;;;4985251;28;20031;-70
2022/09/04 00:56:39;;;;;;;9.50;6.43;;;21.00;68.50;;;;;;4976872;28;20034;-70
2022/09/04 00:59:23;;;;;;;9.57;6.15;;;21.00;68.60;;;;;;4992816;28;20357;-69
2022/09/04 01:01:54;;;;;;;11.60;6.70;;;21.00;68.00;;;;;;4987766;28;20426;-70
2022/09/04 01:04:36;;;;;;;10.60;7.68;;;21.00;68.60;;;;;;4983265;28;20046;-70
2022/09/04 01:07:27;;;;;;;9.70;6.63;;;20.90;69.10;;;;;;4989915;28;20072;-71
2022/09/04 01:10:00;;;;;;;11.73;6.43;;;20.90;69.50;;;;;;4983931;28;20066;-70
2022/09/04 01:12:35;;;;;;;9.73;7.25;;;20.90;69.10;;;;;;4986820;28;20038;-70
2022/09/04 01:15:25;;;;;;;9.77;6.32;;;20.90;69.80;;;;;;4983932;28;20019;-70
2022/09/04 01:18:22;;;;;;;8.50;6.30;;;20.80;70.10;;;;;;4977866;28;20022;-70
2022/09/04 01:21:13;;;;;;;11.60;7.78;;;20.80;70.40;;;;;;4973958;28;20101;-70
2022/09/04 01:24:14;;;;;;;11.27;8.50;;;20.80;70.90;;;;;;4976256;28;20105;-70
2022/09/04 01:26:48;;;;;;;10.93;6.70;;;20.70;70.70;;;;;;4971709;28;20074;-70
2022/09/04 01:29:51;;;;;;;11.40;7.28;;;20.60;70.60;;;;;;4977414;28;20074;-70
2022/09/04 01:32:43;;;;;;;11.07;8.38;;;20.50;70.70;;;;;;4990274;28;20027;-69
2022/09/04 01:35:35;;;;;;;9.60;7.18;;;20.60;72.00;;;;;;4979554;28;20525;-70
2022/09/04 01:38:39;;;;;;;11.77;9.02;;;20.60;72.40;;;;;;4983116;28;20449;-70
2022/09/04 01:41:17;;;;;;;10.95;8.02;;;20.60;72.70;;;;;;4892111;29;20047;-70
2022/09/04 01:43:42;;;;;;;10.95;7.25;;;20.50;72.70;;;;;;4892223;29;20503;-71
2022/09/04 01:46:24;;;;;;;10.60;7.45;;;20.60;72.70;;;;;;4927202;28;20034;-71
2022/09/04 01:49:02;;;;;;;11.55;8.48;;;20.60;72.20;;;;;;4975771;28;20092;-71
2022/09/04 01:51:48;;;;;;;12.30;7.85;;;20.50;72.70;;;;;;4976123;28;20027;-70
2022/09/04 01:54:47;;;;;;;10.70;8.50;;;20.50;73.00;;;;;;4979686;28;20092;-70
2022/09/04 01:57:33;;;;;;;8.00;6.28;;;20.50;73.20;;;;;;4971954;28;20441;-70
2022/09/04 02:00:08;;;;;;;11.27;7.28;;;20.40;73.00;;;;;;4983182;28;20033;-70
2022/09/04 02:03:25;;;;;;;10.70;8.50;;;20.40;73.50;;;;;;4972329;28;20023;-71
2022/09/04 02:06:00;;;;;;;11.75;9.27;;;20.40;73.90;;;;;;4954040;28;20070;-71
2022/09/04 02:08:34;;;;;;;7.88;6.30;;;20.40;73.90;;;;;;4990061;28;20042;-70
2022/09/04 02:11:07;;;;;;;11.88;9.02;;;20.40;73.70;;;;;;4985473;28;20026;-70
2022/09/04 02:13:55;;;;;;;11.35;9.25;;;20.40;73.90;;;;;;4971658;28;20477;-70
2022/09/04 02:16:59;;;;;;;12.70;7.47;;;20.30;74.50;;;;;;4980292;28;20031;-70
2022/09/04 02:19:36;;;;;;;12.77;8.60;;;20.30;74.20;;;;;;4977011;28;20023;-70
2022/09/04 02:22:38;;;;;;;10.18;7.75;;;20.30;74.50;;;;;;4981643;28;20030;-71
2022/09/04 02:25:14;;;;;;;11.60;8.27;;;20.20;74.30;;;;;;4984276;28;20023;-70
2022/09/04 02:28:02;;;;;;;8.90;6.88;;;20.20;74.60;;;;;;4984375;28;20014;-70
2022/09/04 02:30:36;;;;;;;13.13;9.63;;;20.20;74.00;;;;;;4970323;28;20442;-70
2022/09/04 02:33:31;;;;;;;11.55;9.88;;;20.10;75.00;;;;;;4986607;28;20015;-69
2022/09/04 02:36:13;;;;;;;12.18;9.93;;;20.10;75.80;;;;;;4980775;28;20022;-71
2022/09/04 02:39:01;;;;;;;10.23;6.55;;;20.10;76.40;;;;;;4991224;28;20022;-70
2022/09/04 02:41:32;;;;;;;11.85;8.68;;;20.10;75.60;;;;;;4986910;28;20072;-70
2022/09/04 02:44:29;;;;;;;14.82;10.55;;;20.10;75.40;;;;;;4971843;28;20058;-69
2022/09/04 02:47:21;;;;;;;14.60;11.13;;;20.10;76.00;;;;;;4986053;28;20041;-69
2022/09/04 02:50:02;;;;;;;13.82;10.10;;;20.10;76.30;;;;;;4971997;28;20551;-68
2022/09/04 02:52:54;;;;;;;12.10;10.13;;;20.10;76.40;;;;;;4981696;28;20110;-70
2022/09/04 02:55:56;;;;;;;16.33;11.10;;;20.10;75.90;;;;;;4971964;28;20022;-71
2022/09/04 02:58:46;;;;;;;13.77;12.00;;;20.10;76.30;;;;;;4982464;28;20540;-70
2022/09/04 03:01:14;;;;;;;11.85;10.43;;;20.10;76.60;;;;;;4985396;28;20122;-70
2022/09/04 03:03:53;;;;;;;14.13;10.63;;;20.10;76.40;;;;;;4975051;28;20085;-69
2022/09/04 03:06:41;;;;;;;13.52;10.52;;;20.10;76.40;;;;;;4979974;28;20106;-70
2022/09/04 03:09:29;;;;;;;16.10;12.00;;;20.10;76.60;;;;;;4966391;28;20446;-70
2022/09/04 03:11:58;;;;;;;13.85;11.13;;;20.10;76.90;;;;;;4982524;28;20029;-69
2022/09/04 03:14:33;;;;;;;16.50;12.30;;;20.00;76.90;;;;;;4978102;28;20026;-70
2022/09/04 03:17:28;;;;;;;15.60;12.93;;;20.10;76.90;;;;;;4978970;28;20029;-70
2022/09/04 03:20:10;;;;;;;15.80;12.00;;;20.00;77.00;;;;;;4993160;28;20046;-70
2022/09/04 03:22:42;;;;;;;11.27;9.23;;;20.00;77.00;;;;;;4987246;28;20135;-71
2022/09/04 03:25:24;;;;;;;15.20;11.10;;;20.00;76.90;;;;;;4962241;28;20009;-70
2022/09/04 03:27:50;;;;;;;17.45;13.73;;;19.90;77.30;;;;;;4983630;28;20042;-71
2022/09/04 03:30:16;;;;;;;19.77;15.23;;;19.90;77.80;;;;;;4992647;28;20034;-69
2022/09/04 03:32:47;;;;;;;13.50;10.02;;;19.90;78.30;;;;;;4989903;28;20057;-70
2022/09/04 03:35:36;;;;;;;18.77;14.70;;;19.80;78.30;;;;;;4983171;28;20044;-69
2022/09/04 03:38:39;;;;;;;19.58;15.88;;;19.70;79.00;;;;;;4983122;28;20030;-70
2022/09/04 03:41:28;;;;;;;16.77;13.20;;;19.70;78.90;;;;;;4993638;28;20033;-70
2022/09/04 03:44:21;;;;;;;23.40;18.97;;;19.70;78.80;;;;;;4979065;28;20636;-69
2022/09/04 03:47:22;;;;;;;19.67;15.98;;;19.60;79.60;;;;;;4975324;28;20030;-70
2022/09/04 03:49:50;;;;;;;;;;;19.60;80.30;;;;;;4974483;28;20097;-70
2022/09/04 03:52:40;;;;;;;15.30;12.07;;;19.60;80.00;;;;;;4975735;28;19981;-69
2022/09/04 03:55:25;;;;;;;17.67;14.30;;;19.60;78.50;;;;;;4980260;28;20023;-69
2022/09/04 03:58:24;;;;;;;17.27;13.52;;;19.50;79.90;;;;;;4976611;28;20034;-70
2022/09/04 04:01:18;;;;;;;11.07;8.47;;;19.50;80.00;;;;;;4978017;28;20030;-70
2022/09/04 04:03:49;;;;;;;17.40;14.82;;;19.50;77.20;;;;;;4979152;28;20274;-70
2022/09/04 04:06:35;;;;;;;17.98;14.05;;;19.40;79.60;;;;;;4990013;28;20129;-70
2022/09/04 04:09:03;;;;;;;19.95;15.48;;;19.40;80.80;;;;;;4982883;28;20031;-70
2022/09/04 04:11:53;;;;;;;15.55;13.32;;;19.50;80.40;;;;;;4990128;28;20022;-70
2022/09/04 04:14:37;;;;;;;20.58;16.17;;;19.40;80.80;;;;;;4981299;28;20039;-69
2022/09/04 04:17:30;;;;;;;19.70;17.55;;;19.40;81.70;;;;;;4973245;28;20117;-69
2022/09/04 04:20:17;;;;;;;18.63;15.40;;;19.30;81.90;;;;;;4984552;28;20034;-69
2022/09/04 04:23:05;;;;;;;20.23;17.38;;;19.30;81.90;;;;;;4972781;28;20138;-70
2022/09/04 04:25:49;;;;;;;22.83;18.25;;;19.30;81.70;;;;;;4984772;28;20019;-70
2022/09/04 04:28:26;;;;;;;15.60;13.32;;;19.30;82.10;;;;;;4973396;28;20039;-70
2022/09/04 04:30:57;;;;;;;19.60;14.98;;;19.30;82.10;;;;;;4982166;28;20045;-70
2022/09/04 04:33:42;;;;;;;23.02;17.25;;;19.30;82.00;;;;;;4990357;28;20026;-70
2022/09/04 04:36:23;;;;;;;18.17;14.88;;;19.30;82.20;;;;;;4977544;28;20031;-69
2022/09/04 04:39:34;;;;;;;19.55;16.10;;;19.30;82.20;;;;;;4975240;28;20030;-70
2022/09/04 04:42:03;;;;;;;17.23;13.40;;;19.30;82.40;;;;;;4989453;28;20520;-70
2022/09/04 04:48:22;;;;;;;16.25;14.02;;;19.30;82.40;;;;;;4952911;28;20153;-70
2022/09/04 04:51:12;;;;;;;19.90;16.40;;;19.30;82.10;;;;;;4975705;28;20027;-70
2022/09/04 04:54:03;;;;;;;18.38;15.27;;;19.20;82.50;;;;;;4990981;28;20034;-70
2022/09/04 04:56:44;;;;;;;17.00;13.98;;;19.20;81.60;;;;;;4985971;28;20031;-70
2022/09/04 04:59:19;;;;;;;22.15;16.98;;;19.20;82.20;;;;;;4971386;28;20110;-71
2022/09/04 05:02:08;;;;;;;19.13;16.65;;;19.10;82.60;;;;;;4982901;28;20515;-70
2022/09/04 05:04:40;;;;;;;21.67;17.73;;;19.10;82.70;;;;;;4973484;28;20037;-71
2022/09/04 05:07:10;;;;;;;18.92;14.25;;;19.10;83.30;;;;;;4973411;28;20019;-70
2022/09/04 05:09:45;;;;;;;19.43;16.10;;;19.10;83.30;;;;;;4972634;28;20034;-70
2022/09/04 05:12:24;;;;;;;18.58;15.95;;;19.10;83.50;;;;;;4982851;28;20330;-70
2022/09/04 05:14:59;;;;;;;23.42;18.38;;;19.10;83.40;;;;;;4972558;28;20027;-68
2022/09/04 05:18:00;;;;;;;20.92;17.60;;;19.10;83.80;;;;;;4988834;28;20187;-70
2022/09/04 05:20:26;;;;;;;22.45;17.08;;;19.20;83.90;;;;;;4988975;28;20477;-69
2022/09/04 05:22:59;;;;;;;16.90;15.00;;;19.20;83.30;;;;;;4972043;28;20039;-69
2022/09/04 05:26:08;;;;;;;19.98;17.63;;;19.20;83.30;;;;;;4973652;28;20100;-70
2022/09/04 05:29:03;;;;;;;15.63;13.90;;;19.20;83.40;;;;;;4965703;28;20487;-70
2022/09/04 05:31:47;;;;;;;17.73;15.25;;;19.20;83.30;;;;;;4981074;28;20397;-70
2022/09/04 05:34:51;;;;;;;15.32;11.88;;;19.20;83.60;;;;;;4988373;28;20507;-70
2022/09/04 05:37:49;;;;;;;21.20;15.52;;;19.30;83.30;;;;;;4975866;28;20023;-70
2022/09/04 05:40:31;;;;;;;15.35;11.90;;;19.30;83.30;;;;;;4987611;28;20129;-70
2022/09/04 05:43:21;;;;;;;17.50;14.55;;;19.30;82.70;;;;;;4990791;28;20022;-69
2022/09/04 05:46:04;;;;;;;23.98;19.25;;;19.30;82.90;;;;;;4990071;28;20785;-69
2022/09/04 05:48:37;;;;;;;21.42;19.13;;;19.30;83.50;;;;;;4988735;28;20092;-69
2022/09/04 05:51:51;;;;;;;19.20;15.55;;;19.30;83.50;;;;;;4989240;28;20022;-69
2022/09/04 05:54:43;;;;;;;19.70;15.60;;;19.40;83.40;;;;;;4983496;28;20057;-70
2022/09/04 05:57:36;;;;;;;16.95;12.27;;;19.30;83.50;;;;;;4981510;28;20026;-69
2022/09/04 06:00:13;;;;;;;19.13;17.08;;;19.40;82.90;;;;;;4974043;28;20113;-69
2022/09/04 06:02:45;;;;;;;17.13;15.10;;;19.40;83.10;;;;;;4981732;28;20030;-70
2022/09/04 06:05:35;;;;;;;14.93;12.65;;;19.40;83.30;;;;;;4975193;28;20023;-70
2022/09/04 06:08:15;;;;;;;;;;;19.50;83.10;;;;;;4981392;28;20113;-69
2022/09/04 06:10:44;;;;;;;15.43;13.48;;;19.50;83.20;;;;;;4972218;28;19937;-69
2022/09/04 06:13:15;;;;;;;18.92;16.00;;;19.50;82.40;;;;;;4975021;28;20030;-69
2022/09/04 06:16:20;;;;;;;19.83;14.23;;;19.50;81.90;;;;;;4988498;28;20045;-69
2022/09/04 06:19:02;;;;;;;14.90;12.65;;;19.60;81.80;;;;;;4979234;28;20158;-69
2022/09/04 06:21:46;;;;;;;20.05;16.88;;;19.70;82.00;;;;;;4991273;28;20022;-70
2022/09/04 06:24:39;;;;;;;19.70;16.85;;;19.80;82.30;;;;;;4978707;28;20484;-71
2022/09/04 06:27:33;;;;;;;20.02;17.58;;;19.80;82.00;;;;;;4989775;28;20409;-70
2022/09/04 06:30:09;;;;;;;14.43;12.77;;;19.90;82.10;;;;;;4979919;28;20065;-71
2022/09/04 06:32:53;;;;;;;16.17;13.52;;;19.90;79.90;;;;;;4980534;28;20125;-69
2022/09/04 06:35:47;;;;;;;19.27;16.92;;;20.00;80.80;;;;;;4983762;28;20465;-69
2022/09/04 06:38:40;;;;;;;13.68;10.88;;;20.00;81.20;;;;;;4980849;28;20494;-70
2022/09/04 06:41:34;;;;;;;5.40;3.20;;;20.20;72.70;;;;;;4981673;28;20053;-71
2022/09/04 06:44:00;;;;;;;16.27;13.23;;;20.30;66.90;;;;;;4985892;28;20028;-71
2022/09/04 06:46:53;;;;;;;18.35;14.70;;;20.40;75.80;;;;;;4979366;28;20027;-70
2022/09/04 06:50:16;;;;;;;14.85;13.05;;;20.40;77.20;;;;;;4952233;28;20047;-70
2022/09/04 06:53:03;;;;;;;14.35;10.80;;;20.60;78.60;;;;;;4896023;29;20044;-71
2022/09/04 06:55:43;;;;;;;19.35;15.30;;;20.70;78.10;;;;;;4898834;29;20443;-70
2022/09/04 06:58:27;;;;;;;;;;;20.80;78.50;;;;;;4946500;28;20126;-71
2022/09/04 07:01:07;;;;;;;16.83;14.93;;;20.80;76.30;;;;;;4974245;28;20427;-71
2022/09/04 07:03:38;;;;;;;19.13;16.98;;;20.90;76.90;;;;;;4972764;28;20553;-69
2022/09/04 07:06:44;;;;;;;18.20;15.80;;;21.00;78.10;;;;;;4970996;28;20532;-70
2022/09/04 07:09:15;;;;;;;20.17;17.95;;;21.10;77.90;;;;;;4971767;28;20034;-71
2022/09/04 07:12:02;;;;;;;19.52;17.27;;;21.20;77.40;;;;;;4964835;28;20050;-71
2022/09/04 07:15:02;;;;;;;16.50;13.00;;;21.20;77.60;;;;;;4970460;28;20035;-72
2022/09/04 07:17:36;;;;;;;18.63;16.55;;;21.30;77.00;;;;;;4956703;28;20027;-71
2022/09/04 07:20:18;;;;;;;20.75;17.63;;;21.40;76.70;;;;;;4969113;28;20027;-70
2022/09/04 07:23:08;;;;;;;18.50;15.88;;;21.40;76.50;;;;;;4958026;28;20031;-71
2022/09/04 07:25:59;;;;;;;;;;;21.40;76.90;;;;;;4964024;28;20093;-71
2022/09/04 07:28:31;;;;;;;18.38;15.90;;;21.40;76.80;;;;;;4974623;28;20005;-71
2022/09/04 07:31:06;;;;;;;16.75;13.07;;;21.40;77.10;;;;;;4969314;28;20042;-70
2022/09/04 07:33:41;;;;;;;17.83;14.60;;;21.40;77.20;;;;;;4973625;28;20022;-70
2022/09/04 07:36:15;;;;;;;21.58;16.23;;;21.40;77.20;;;;;;4972236;28;20026;-70
2022/09/04 07:39:16;;;;;;;19.35;16.00;;;21.40;77.00;;;;;;4974019;28;20102;-70
2022/09/04 07:41:44;;;;;;;17.38;13.48;;;21.40;77.60;;;;;;4967292;28;20034;-71
2022/09/04 07:44:37;;;;;;;20.10;17.45;;;21.50;77.00;;;;;;4953893;28;20027;-71
2022/09/04 07:47:33;;;;;;;14.00;9.98;;;21.70;77.10;;;;;;4962466;28;20453;-70
2022/09/04 07:50:22;;;;;;;15.00;13.18;;;21.90;74.10;;;;;;4974004;28;20050;-71
2022/09/04 07:53:18;;;;;;;16.88;13.88;;;22.10;74.30;;;;;;4983645;28;20034;-71
2022/09/04 07:56:01;;;;;;;14.88;13.13;;;22.40;74.70;;;;;;4978587;28;20397;-71
2022/09/04 07:58:45;;;;;;;17.38;13.30;;;22.70;73.50;;;;;;4986131;28;20010;-71
2022/09/04 08:01:48;;;;;;;19.65;16.77;;;23.00;73.20;;;;;;4978281;28;20471;-70
2022/09/04 08:04:19;;;;;;;13.73;10.80;;;23.20;71.60;;;;;;4976324;28;20031;-71
2022/09/04 08:07:01;;;;;;;14.80;13.13;;;23.30;70.10;;;;;;4978041;28;20027;-71
2022/09/04 08:10:13;;;;;;;16.45;12.88;;;23.40;71.20;;;;;;4991821;28;20031;-71
2022/09/04 08:13:17;;;;;;;11.05;8.38;;;23.60;71.40;;;;;;4976718;28;20041;-71
2022/09/04 08:16:18;;;;;;;15.10;12.07;;;23.80;69.50;;;;;;4992614;28;20076;-71
2022/09/04 08:18:57;;;;;;;10.82;9.43;;;24.00;69.10;;;;;;4983350;28;20023;-71
2022/09/04 08:21:32;;;;;;;9.20;6.80;;;24.10;68.60;;;;;;4989740;28;20050;-71
2022/09/04 08:24:09;;;;;;;9.20;6.75;;;24.30;67.50;;;;;;4990527;28;20026;-71
2022/09/04 08:27:12;;;;;;;11.50;9.13;;;24.40;66.50;;;;;;4989204;28;21195;-72
2022/09/04 08:29:50;;;;;;;14.13;11.40;;;24.50;66.40;;;;;;4986984;28;20053;-72
2022/09/04 08:32:53;;;;;;;7.32;4.72;;;24.60;65.70;;;;;;4991370;28;20496;-72
2022/09/04 08:35:36;;;;;;;11.43;6.68;;;24.70;62.70;;;;;;4982128;28;20026;-71
2022/09/04 08:38:29;;;;;;;13.55;11.60;;;24.70;65.10;;;;;;4988388;28;20084;-70
2022/09/04 08:41:16;;;;;;;11.68;8.80;;;24.70;65.20;;;;;;4973418;28;20029;-70
2022/09/04 08:44:11;;;;;;;9.05;7.75;;;24.90;65.00;;;;;;4979764;28;20069;-71
2022/09/04 08:47:06;;;;;;;8.98;6.63;;;25.10;64.90;;;;;;4992561;28;20762;-72
2022/09/04 08:49:53;;;;;;;11.85;8.50;;;25.30;64.30;;;;;;4991090;28;20042;-72
2022/09/04 08:52:44;;;;;;;12.10;5.22;;;25.50;63.90;;;;;;4990186;28;20130;-71
2022/09/04 08:55:48;;;;;;;12.50;5.78;;;25.70;63.40;;;;;;4977105;28;20030;-72
2022/09/04 08:58:31;;;;;;;9.32;7.78;;;26.00;62.10;;;;;;4977229;28;20533;-72
2022/09/04 09:01:09;;;;;;;9.02;6.20;;;26.20;61.40;;;;;;4987221;28;20058;-73
2022/09/04 09:04:13;;;;;;;14.35;8.85;;;26.40;61.10;;;;;;4984322;28;20034;-71
2022/09/04 09:07:01;;;;;;;8.98;7.15;;;26.60;60.20;;;;;;4991377;28;20057;-72
2022/09/04 09:10:03;;;;;;;8.85;5.78;;;26.70;60.30;;;;;;4980106;28;20054;-72
2022/09/04 09:13:00;;;;;;;9.45;6.30;;;26.70;58.80;;;;;;4991665;28;20050;-71
2022/09/04 09:15:50;;;;;;;11.75;7.93;;;26.70;59.70;;;;;;4977166;28;20023;-72
2022/09/04 09:18:26;;;;;;;;;;;26.80;59.10;;;;;;4981956;28;20034;-71
2022/09/04 09:21:30;;;;;;;7.00;4.93;;;26.90;58.40;;;;;;5086959;28;21632;-71
2022/09/04 09:24:26;;;;;;;11.32;8.35;;;27.10;58.50;;;;;;5085928;28;20063;-71
2022/09/04 09:27:10;;;;;;;10.40;7.03;;;27.30;58.80;;;;;;5087372;28;20037;-71
2022/09/04 09:29:49;;;;;;;11.82;8.88;;;27.50;57.60;;;;;;5087956;28;20047;-72
2022/09/04 09:32:40;;;;;;;6.90;4.82;;;27.60;57.50;;;;;;5087448;28;20020;-72
2022/09/04 09:35:50;;;;;;;6.88;3.38;;;27.60;57.30;;;;;;5086120;28;20381;-73
2022/09/04 09:38:35;;;;;;;;;;;27.90;56.70;;;;;;5067771;28;20029;-71
2022/09/04 09:41:12;;;;;;;6.30;3.42;;;27.90;56.20;;;;;;5072715;28;19919;-72
2022/09/04 09:44:03;;;;;;;8.35;4.28;;;28.00;56.50;;;;;;5086457;28;20020;-72
2022/09/04 09:47:07;;;;;;;10.55;3.85;;;28.20;56.40;;;;;;5075130;28;20442;-71
2022/09/04 09:49:44;;;;;;;5.68;3.28;;;28.30;55.90;;;;;;5086697;28;20029;-72
2022/09/04 09:52:40;;;;;;;9.43;5.57;;;28.30;56.00;;;;;;5087921;28;20024;-72
2022/09/04 09:55:37;;;;;;;8.20;4.65;;;28.30;55.90;;;;;;5085436;28;20028;-73
2022/09/04 09:58:24;;;;;;;7.70;5.60;;;28.30;56.20;;;;;;5086895;28;20107;-72
2022/09/04 10:01:18;;;;;;;7.85;5.38;;;28.50;55.60;;;;;;5087136;28;20033;-73
2022/09/04 10:04:13;;;;;;;8.98;5.50;;;28.50;55.40;;;;;;5067267;28;20066;-71
2022/09/04 10:07:13;;;;;;;6.55;4.40;;;28.50;55.20;;;;;;5086155;28;20039;-71
2022/09/04 10:10:23;;;;;;;6.30;3.75;;;28.50;55.00;;;;;;5087017;28;20418;-72
2022/09/04 10:13:02;;;;;;;8.38;5.93;;;28.60;54.90;;;;;;5082402;28;20044;-72
2022/09/04 10:15:45;;;;;;;8.30;5.75;;;28.70;54.60;;;;;;5086353;28;20515;-71
2022/09/04 10:18:37;;;;;;;6.47;3.72;;;28.80;54.50;;;;;;5085019;28;20446;-71
2022/09/04 10:21:35;;;;;;;5.53;2.72;;;29.00;54.10;;;;;;5086745;28;20071;-72
2022/09/04 10:24:43;;;;;;;8.10;4.03;;;29.20;54.20;;;;;;5085801;28;20048;-72
2022/09/04 10:27:23;;;;;;;6.90;3.97;;;29.40;53.20;;;;;;5085295;28;20033;-72
2022/09/04 10:29:52;;;;;;;8.35;4.45;;;29.60;52.80;;;;;;5086759;28;20364;-72
2022/09/04 10:32:31;;;;;;;5.57;2.60;;;29.60;52.50;;;;;;5073247;28;20020;-72
2022/09/04 10:35:19;;;;;;;6.85;3.00;;;29.60;53.20;;;;;;5072629;28;20021;-71
2022/09/04 10:38:13;;;;;;;5.22;2.10;;;29.60;53.00;;;;;;5072120;28;20025;-72
2022/09/04 10:40:58;;;;;;;7.20;2.92;;;29.80;53.30;;;;;;5073053;28;20029;-72
2022/09/04 10:43:56;;;;;;;5.63;3.55;;;30.10;53.00;;;;;;5069426;28;20422;-72
2022/09/04 10:46:32;;;;;;;7.63;3.92;;;30.40;51.30;;;;;;5058186;28;20021;-73
2022/09/04 10:49:16;;;;;;;6.82;3.53;;;30.60;50.10;;;;;;5072255;28;20051;-72
2022/09/04 10:52:03;;;;;;;6.25;3.17;;;30.80;50.20;;;;;;5073210;28;20483;-71
2022/09/04 10:54:49;;;;;;;3.92;2.17;;;30.90;50.40;;;;;;5059921;28;20036;-72
2022/09/04 10:57:46;;;;;;;4.57;2.42;;;30.80;53.00;;;;;;5061177;28;20053;-74
2022/09/04 11:00:17;;;;;;;4.10;2.05;;;30.90;52.30;;;;;;5064574;28;20028;-73
2022/09/04 11:03:07;;;;;;;4.05;2.38;;;31.10;52.20;;;;;;5065701;28;20013;-72
2022/09/04 11:05:33;;;;;;;6.63;4.25;;;31.00;52.70;;;;;;5059554;28;20483;-71
2022/09/04 11:08:15;;;;;;;5.15;2.40;;;30.80;49.70;;;;;;5064021;28;20100;-71
2022/09/04 11:11:17;;;;;;;6.13;2.88;;;30.70;51.60;;;;;;5060909;28;20099;-71
2022/09/04 11:14:15;;;;;;;5.82;2.63;;;30.50;49.60;;;;;;5070657;28;20023;-71
2022/09/04 11:16:59;;;;;;;3.67;2.15;;;30.30;50.70;;;;;;5072412;28;20374;-71
2022/09/04 11:20:03;;;;;;;5.25;2.75;;;30.10;52.80;;;;;;5072026;28;20127;-72
2022/09/04 11:22:46;;;;;;;6.18;3.10;;;30.30;52.00;;;;;;5052603;28;20086;-72
2022/09/04 11:25:31;;;;;;;5.88;2.15;;;30.40;51.00;;;;;;5061285;28;20032;-72
2022/09/04 11:28:22;;;;;;;5.72;3.35;;;30.40;53.30;;;;;;5059047;28;20025;-72
2022/09/04 11:31:13;;;;;;;7.32;3.45;;;30.30;50.80;;;;;;5070584;28;20078;-72
2022/09/04 11:34:01;;;;;;;5.57;1.98;;;30.30;52.40;;;;;;5062914;28;20115;-72
2022/09/04 11:37:03;;;;;;;6.05;2.00;;;30.10;50.90;;;;;;5060552;28;20021;-71
2022/09/04 11:39:38;;;;;;;5.03;2.60;;;30.10;53.60;;;;;;5064528;28;20040;-71
2022/09/04 11:42:27;;;;;;;6.20;2.22;;;30.00;49.10;;;;;;5058878;28;20021;-70
2022/09/04 11:45:19;;;;;;;5.05;2.00;;;29.90;50.40;;;;;;5067780;28;20028;-72
2022/09/04 11:48:07;;;;;;;5.30;1.90;;;29.90;54.00;;;;;;5058986;28;20013;-71
2022/09/04 11:50:46;;;;;;;5.40;2.20;;;29.90;52.50;;;;;;5065243;28;20623;-71
2022/09/04 11:53:38;;;;;;;4.93;2.05;;;30.10;49.10;;;;;;5058914;28;20478;-71
2022/09/04 11:56:31;;;;;;;4.25;2.33;;;30.40;51.40;;;;;;5059237;28;20021;-71
2022/09/04 11:59:05;;;;;;;4.00;1.73;;;30.70;47.50;;;;;;5057482;28;20036;-72
2022/09/04 12:01:40;;;;;;;3.55;1.90;;;31.00;47.20;;;;;;5070897;28;20036;-72
2022/09/04 12:04:27;;;;;;;6.40;2.15;;;31.20;48.20;;;;;;5070512;28;20111;-73
2022/09/04 12:07:14;;;;;;;4.05;2.33;;;31.30;48.30;;;;;;5070062;28;20029;-72
2022/09/04 12:09:59;;;;;;;5.72;2.35;;;31.00;50.80;;;;;;5070567;28;20021;-71
2022/09/04 12:13:06;;;;;;;4.40;2.10;;;30.70;50.80;;;;;;5069387;28;20028;-71
2022/09/04 12:15:53;;;;;;;6.80;2.45;;;30.30;50.20;;;;;;5068525;28;20036;-72
2022/09/04 12:18:53;;;;;;;4.00;1.92;;;30.20;50.70;;;;;;5068079;28;20568;-69
2022/09/04 12:21:52;;;;;;;6.05;2.35;;;30.10;50.90;;;;;;5068057;28;20090;-72
2022/09/04 12:24:30;;;;;;;5.43;2.10;;;30.00;50.70;;;;;;5065672;28;20023;-71
2022/09/04 12:27:17;;;;;;;4.28;1.92;;;29.90;52.10;;;;;;5067990;28;20021;-72
2022/09/04 12:30:02;;;;;;;5.45;2.63;;;29.60;51.80;;;;;;5069278;28;20023;-73
2022/09/04 12:32:51;;;;;;;4.15;2.35;;;29.50;51.50;;;;;;5069829;28;20040;-72
2022/09/04 12:35:37;;;;;;;3.45;1.63;;;29.60;50.10;;;;;;5069588;28;20115;-72
2022/09/04 12:38:36;;;;;;;5.88;2.00;;;29.80;52.90;;;;;;5070382;28;20114;-72
2022/09/04 12:41:05;;;;;;;4.57;2.63;;;29.90;50.90;;;;;;5062918;28;20065;-73
2022/09/04 12:43:45;;;;;;;5.40;2.40;;;29.90;49.00;;;;;;5069766;28;20050;-73
2022/09/04 12:46:38;;;;;;;6.05;2.75;;;29.90;49.80;;;;;;5067584;28;20059;-72
2022/09/04 12:49:31;;;;;;;4.60;1.75;;;29.80;51.00;;;;;;5049435;28;20044;-72
2022/09/04 12:52:21;;;;;;;5.55;2.22;;;29.70;51.50;;;;;;5066813;28;20032;-72
2022/09/04 12:55:03;;;;;;;4.72;2.50;;;29.70;51.90;;;;;;5067987;28;20443;-73
2022/09/04 12:57:54;;;;;;;4.07;2.03;;;29.90;50.30;;;;;;5070000;28;20107;-73
2022/09/04 13:00:25;;;;;;;5.20;2.15;;;30.00;49.20;;;;;;5069307;28;20074;-72
2022/09/04 13:03:13;;;;;;;5.55;2.90;;;30.00;50.60;;;;;;5069712;28;20341;-72
2022/09/04 13:05:48;;;;;;;4.25;2.22;;;30.10;48.90;;;;;;5067687;28;20031;-72
2022/09/04 13:08:37;;;;;;;4.07;1.70;;;30.10;49.50;;;;;;5069431;28;20036;-72
2022/09/04 13:11:49;;;;;;;3.53;1.45;;;30.00;51.60;;;;;;5069024;28;20078;-71
2022/09/04 13:14:24;;;;;;;4.57;2.10;;;29.90;51.60;;;;;;5066897;28;20361;-72
2022/09/04 13:17:02;;;;;;;5.20;2.35;;;29.70;50.70;;;;;;5064226;28;20490;-72
2022/09/04 13:19:37;;;;;;;3.30;1.77;;;29.70;49.50;;;;;;5068907;28;20060;-72
2022/09/04 13:22:21;;;;;;;5.28;2.30;;;29.70;50.10;;;;;;5069231;28;20028;-72
2022/09/04 13:25:13;;;;;;;3.08;1.60;;;29.80;48.70;;;;;;5060563;28;20802;-72
2022/09/04 13:27:42;;;;;;;3.70;1.90;;;30.00;49.50;;;;;;5057546;28;20422;-71
2022/09/04 13:30:28;;;;;;;4.35;1.80;;;30.10;50.00;;;;;;5059244;28;20016;-72
2022/09/04 13:33:22;;;;;;;3.20;1.55;;;30.30;50.60;;;;;;5062738;28;20027;-72
2022/09/04 13:36:01;;;;;;;3.13;1.50;;;30.30;49.50;;;;;;5052435;28;20475;-72
2022/09/04 13:38:26;;;;;;;3.80;1.77;;;30.30;49.10;;;;;;5066413;28;20039;-73
2022/09/04 13:41:17;;;;;;;5.00;1.92;;;30.10;48.20;;;;;;5068795;28;20037;-72
2022/09/04 13:44:10;;;;;;;2.10;1.30;;;30.00;48.70;;;;;;5067967;28;20116;-73
2022/09/04 13:47:07;;;;;;;4.43;1.85;;;30.10;49.30;;;;;;5068317;28;20100;-72
2022/09/04 13:49:47;;;;;;;3.67;1.27;;;30.30;49.00;;;;;;5056342;28;20048;-71
2022/09/04 13:52:21;;;;;;;;;;;30.40;49.40;;;;;;5070116;28;20024;-72
2022/09/04 13:54:58;;;;;;;4.05;1.60;;;30.50;50.40;;;;;;5067537;28;19905;-72
2022/09/04 13:57:30;;;;;;;1.75;1.27;;;30.50;49.10;;;;;;5066923;28;20383;-72
2022/09/04 14:00:01;;;;;;;3.05;1.58;;;30.40;50.10;;;;;;5066579;28;20032;-73
2022/09/04 14:02:29;;;;;;;3.45;1.42;;;30.40;48.20;;;;;;5069228;28;20028;-72
2022/09/04 14:04:56;;;;;;;2.10;1.05;;;30.50;47.90;;;;;;5069028;28;20024;-73
2022/09/04 14:07:34;;;;;;;3.80;1.48;;;30.50;45.30;;;;;;5068781;28;20032;-72
2022/09/04 14:10:05;;;;;;;1.55;0.90;;;30.70;46.00;;;;;;5066038;28;20020;-73
2022/09/04 14:12:51;;;;;;;2.60;1.20;;;30.80;48.90;;;;;;5069294;28;20036;-72
2022/09/04 14:15:39;;;;;;;2.83;0.90;;;31.00;45.90;;;;;;5073483;28;20044;-72
2022/09/04 14:18:12;;;;;;;3.55;1.13;;;31.10;43.90;;;;;;5073146;28;20024;-71